createdAt,value
2022-12-08T00:01:25.546Z,11.37
2022-12-08T00:03:52.312Z,11.60
2022-12-08T00:06:49.359Z,11.70
2022-12-08T00:09:27.313Z,10.77
2022-12-08T00:11:56.629Z,10.93
2022-12-08T00:14:27.886Z,11.03
2022-12-08T00:16:54.869Z,10.43
2022-12-08T00:19:21.823Z,10.70
2022-12-08T00:21:48.552Z,11.27
2022-12-08T00:24:15.104Z,10.23
2022-12-08T00:26:41.613Z,10.07
2022-12-08T00:29:11.897Z,11.23
2022-12-08T00:31:41.239Z,9.73
2022-12-08T00:34:07.794Z,10.03
2022-12-08T00:36:34.446Z,10.07
2022-12-08T00:39:01.153Z,9.60
2022-12-08T00:41:47.285Z,9.70
2022-12-08T00:44:16.903Z,9.70
2022-12-08T00:46:43.383Z,9.40
2022-12-08T00:49:09.958Z,10.50
2022-12-08T00:51:37.731Z,9.27
2022-12-08T00:54:05.367Z,9.87
2022-12-08T00:56:32.231Z,9.90
2022-12-08T00:58:58.825Z,9.90
2022-12-08T01:01:25.517Z,11.40
2022-12-08T01:03:52.415Z,10.27
2022-12-08T01:06:19.075Z,9.77
2022-12-08T01:08:45.575Z,10.00
2022-12-08T01:11:18.105Z,10.20
2022-12-08T01:13:45.828Z,10.50
2022-12-08T01:16:23.860Z,10.63
2022-12-08T01:18:50.502Z,10.67
2022-12-08T01:21:17.762Z,10.43
2022-12-08T01:23:44.697Z,11.53
2022-12-08T01:26:14.478Z,11.43
2022-12-08T01:28:41.816Z,12.33
2022-12-08T01:31:13.865Z,12.63
2022-12-08T01:33:40.813Z,12.43
2022-12-08T01:36:08.307Z,12.77
2022-12-08T01:38:34.909Z,13.80
2022-12-08T01:41:01.517Z,15.03
2022-12-08T01:43:50.870Z,15.47
2022-12-08T01:46:17.358Z,15.97
2022-12-08T01:48:43.960Z,16.50
2022-12-08T01:51:10.517Z,17.20
2022-12-08T01:53:37.286Z,17.80
2022-12-08T01:56:10.208Z,18.57
2022-12-08T01:58:42.771Z,19.63
2022-12-08T02:01:10.595Z,18.80
2022-12-08T02:03:40.845Z,19.20
2022-12-08T02:06:08.062Z,19.57
2022-12-08T02:08:36.039Z,18.53
2022-12-08T02:11:02.511Z,20.53
2022-12-08T02:13:29.119Z,20.77
2022-12-08T02:16:05.021Z,21.83
2022-12-08T02:18:53.730Z,19.57
2022-12-08T02:21:42.116Z,21.37
2022-12-08T02:24:17.570Z,21.53
2022-12-08T02:27:06.214Z,19.93
2022-12-08T02:30:04.006Z,21.80
2022-12-08T02:32:49.024Z,21.50
2022-12-08T02:35:28.513Z,21.80
2022-12-08T02:38:13.725Z,22.47
2022-12-08T02:40:57.987Z,21.83
2022-12-08T02:43:41.764Z,21.13
2022-12-08T02:46:23.310Z,20.20
2022-12-08T02:48:51.485Z,22.10
2022-12-08T02:51:19.030Z,22.63
2022-12-08T02:53:46.592Z,22.40
2022-12-08T02:56:40.507Z,21.37
2022-12-08T02:59:28.546Z,20.43
2022-12-08T03:02:01.144Z,21.33
2022-12-08T03:04:35.479Z,21.03
2022-12-08T03:07:09.115Z,21.13
2022-12-08T03:09:49.636Z,19.23
2022-12-08T03:12:31.107Z,20.70
2022-12-08T03:15:02.580Z,20.43
2022-12-08T03:17:31.280Z,19.90
2022-12-08T03:20:03.270Z,18.73
2022-12-08T03:22:30.924Z,19.53
2022-12-08T03:24:58.229Z,19.33
2022-12-08T03:27:28.069Z,19.73
2022-12-08T03:29:56.770Z,20.27
2022-12-08T03:32:48.278Z,19.33
2022-12-08T03:35:22.741Z,19.70
2022-12-08T03:37:49.316Z,20.27
2022-12-08T03:40:19.816Z,20.87
2022-12-08T03:42:46.474Z,19.73
2022-12-08T03:45:12.991Z,20.20
2022-12-08T03:47:39.663Z,18.93
2022-12-08T03:50:06.846Z,19.90
2022-12-08T03:52:33.558Z,18.57
2022-12-08T03:55:00.006Z,18.30
2022-12-08T03:57:26.451Z,19.00
2022-12-08T03:59:52.946Z,19.67
2022-12-08T04:02:19.400Z,18.87
2022-12-08T04:04:45.923Z,18.03
2022-12-08T04:07:12.377Z,18.97
2022-12-08T04:09:39.094Z,18.23
2022-12-08T04:12:08.890Z,18.10
2022-12-08T04:14:35.353Z,18.43
2022-12-08T04:17:01.878Z,17.87
2022-12-08T04:19:28.925Z,16.07
2022-12-08T04:21:55.602Z,17.37
2022-12-08T04:24:22.891Z,16.97
2022-12-08T04:26:50.659Z,16.90
2022-12-08T04:29:17.314Z,15.93
2022-12-08T04:31:44.494Z,16.70
2022-12-08T04:34:11.038Z,15.90
2022-12-08T04:36:37.915Z,15.43
2022-12-08T04:39:04.351Z,16.83
2022-12-08T04:41:30.928Z,16.43
2022-12-08T04:43:57.363Z,14.77
2022-12-08T04:46:23.943Z,15.50
2022-12-08T04:48:52.696Z,15.23
2022-12-08T04:51:20.424Z,15.57
2022-12-08T04:53:47.684Z,15.37
2022-12-08T04:56:15.896Z,15.37
2022-12-08T04:58:42.657Z,14.47
2022-12-08T05:01:09.561Z,15.00
2022-12-08T05:03:36.183Z,14.20
2022-12-08T05:06:03.237Z,14.97
2022-12-08T05:08:30.207Z,14.33
2022-12-08T05:11:05.419Z,13.87
2022-12-08T05:13:32.450Z,14.67
2022-12-08T05:16:11.275Z,14.50
2022-12-08T05:18:38.826Z,13.90
2022-12-08T05:21:06.376Z,14.17
2022-12-08T05:23:33.676Z,14.70
2022-12-08T05:26:00.948Z,15.17
2022-12-08T05:28:44.119Z,14.13
2022-12-08T05:31:16.330Z,15.13
2022-12-08T05:33:43.953Z,16.47
2022-12-08T05:36:13.073Z,14.73
2022-12-08T05:38:39.994Z,13.90
2022-12-08T05:41:16.779Z,14.83
2022-12-08T05:43:43.267Z,14.33
2022-12-08T05:46:11.127Z,14.60
2022-12-08T05:48:38.200Z,14.60
2022-12-08T05:51:05.451Z,15.20
2022-12-08T05:53:31.968Z,14.83
2022-12-08T05:55:58.961Z,15.33
2022-12-08T05:58:25.452Z,14.60
2022-12-08T06:00:54.273Z,14.07
2022-12-08T06:03:20.951Z,14.63
2022-12-08T06:05:49.661Z,15.03
2022-12-08T06:08:16.471Z,14.13
2022-12-08T06:10:44.106Z,14.70
2022-12-08T06:13:10.774Z,15.23
2022-12-08T06:15:38.417Z,14.67
2022-12-08T06:18:05.533Z,14.00
2022-12-08T06:20:32.279Z,14.97
2022-12-08T06:22:58.762Z,15.77
2022-12-08T06:25:25.880Z,15.90
2022-12-08T06:27:52.384Z,16.17
2022-12-08T06:30:18.902Z,16.53
2022-12-08T06:32:45.336Z,15.80
2022-12-08T06:35:11.855Z,16.97
2022-12-08T06:37:38.403Z,15.63
2022-12-08T06:40:05.772Z,15.30
2022-12-08T06:42:44.371Z,15.67
2022-12-08T06:45:12.892Z,16.23
2022-12-08T06:47:39.521Z,16.87
2022-12-08T06:50:07.427Z,15.90
2022-12-08T06:52:37.689Z,15.40
2022-12-08T06:55:08.507Z,15.37
2022-12-08T06:57:35.511Z,16.67
2022-12-08T07:00:02.564Z,15.73
2022-12-08T07:02:29.508Z,13.97
2022-12-08T07:04:56.042Z,14.33
2022-12-08T07:07:23.530Z,14.97
2022-12-08T07:09:50.070Z,14.33
2022-12-08T07:12:16.537Z,15.37
2022-12-08T07:14:42.984Z,14.67
2022-12-08T07:17:09.526Z,14.80
2022-12-08T07:19:36.016Z,13.90
2022-12-08T07:22:02.459Z,14.47
2022-12-08T07:24:28.956Z,14.90
2022-12-08T07:26:55.445Z,13.57
2022-12-08T07:29:26.191Z,13.77
2022-12-08T07:31:53.020Z,13.60
2022-12-08T07:34:19.519Z,12.90
2022-12-08T07:36:45.985Z,12.73
2022-12-08T07:39:12.635Z,12.00
2022-12-08T07:41:39.114Z,13.23
2022-12-08T07:44:05.544Z,11.57
2022-12-08T07:46:32.060Z,10.43
2022-12-08T07:48:58.923Z,11.70
2022-12-08T07:51:25.387Z,10.87
2022-12-08T07:53:54.641Z,11.30
2022-12-08T07:56:22.525Z,10.97
2022-12-08T07:58:49.025Z,9.63
2022-12-08T08:01:26.941Z,9.70
2022-12-08T08:03:56.247Z,11.00
2022-12-08T08:06:25.311Z,10.47
2022-12-08T08:08:51.729Z,9.70
2022-12-08T08:11:21.430Z,10.80
2022-12-08T08:13:48.811Z,11.00
2022-12-08T08:16:15.415Z,10.83
2022-12-08T08:18:42.280Z,10.60
2022-12-08T08:21:42.994Z,11.23
2022-12-08T08:23:55.430Z,10.30
2022-12-08T08:26:21.955Z,10.73
2022-12-08T08:28:50.138Z,10.93
2022-12-08T08:31:16.976Z,10.97
2022-12-08T08:33:43.543Z,10.40
2022-12-08T08:36:10.384Z,10.37
2022-12-08T08:38:42.810Z,12.60
2022-12-08T08:41:10.983Z,10.53
2022-12-08T08:43:38.808Z,11.27
2022-12-08T08:46:06.993Z,11.47
2022-12-08T08:48:33.971Z,11.30
2022-12-08T08:51:07.813Z,11.03
2022-12-08T08:53:34.290Z,10.87
2022-12-08T08:56:02.951Z,11.90
2022-12-08T08:58:29.636Z,11.67
2022-12-08T09:00:56.450Z,13.73
2022-12-08T09:03:23.030Z,14.20
2022-12-08T09:05:50.508Z,14.63
2022-12-08T09:08:17.220Z,14.67
2022-12-08T09:10:43.729Z,15.50
2022-12-08T09:13:10.169Z,15.77
2022-12-08T09:15:36.662Z,16.53
2022-12-08T09:18:03.529Z,15.90
2022-12-08T09:20:29.949Z,18.07
2022-12-08T09:22:56.381Z,17.47
2022-12-08T09:25:22.856Z,17.37
2022-12-08T09:27:49.482Z,16.77
2022-12-08T09:30:16.200Z,17.83
2022-12-08T09:32:43.167Z,17.50
2022-12-08T09:35:09.981Z,18.13
2022-12-08T09:37:36.605Z,17.27
2022-12-08T09:40:03.736Z,18.93
2022-12-08T09:42:50.611Z,18.23
2022-12-08T09:45:18.788Z,16.73
2022-12-08T09:48:06.097Z,16.83
2022-12-08T09:50:39.456Z,16.43
2022-12-08T09:53:12.285Z,17.63
2022-12-08T09:55:49.311Z,16.93
2022-12-08T09:58:29.349Z,16.73
2022-12-08T10:00:56.284Z,16.63
2022-12-08T10:03:27.160Z,18.00
2022-12-08T10:06:09.069Z,17.33
2022-12-08T10:08:47.856Z,16.70
2022-12-08T10:11:22.141Z,16.00
2022-12-08T10:14:00.661Z,15.30
2022-12-08T10:16:40.816Z,14.13
2022-12-08T10:19:25.244Z,14.23
2022-12-08T10:21:53.210Z,14.93
2022-12-08T10:24:31.824Z,15.10
2022-12-08T10:26:59.255Z,15.07
2022-12-08T10:29:25.772Z,15.80
2022-12-08T10:31:52.434Z,16.83
2022-12-08T10:34:20.752Z,15.87
2022-12-08T10:36:56.133Z,17.33
2022-12-08T10:39:37.889Z,17.43
2022-12-08T10:42:07.883Z,15.93
2022-12-08T10:44:49.727Z,16.37
2022-12-08T10:47:20.857Z,17.63
2022-12-08T10:49:47.321Z,16.70
2022-12-08T10:52:32.232Z,18.40
2022-12-08T10:55:00.503Z,17.63
2022-12-08T10:57:26.935Z,18.97
2022-12-08T10:59:56.008Z,18.20
2022-12-08T11:02:23.208Z,17.60
2022-12-08T11:04:59.459Z,17.83
2022-12-08T11:07:27.547Z,18.63
2022-12-08T11:09:58.236Z,19.17
2022-12-08T11:12:29.469Z,18.90
2022-12-08T11:15:01.446Z,17.73
2022-12-08T11:17:35.600Z,18.37
2022-12-08T11:20:22.257Z,18.70
2022-12-08T11:22:55.930Z,17.50
2022-12-08T11:25:27.594Z,18.40
2022-12-08T11:27:57.531Z,19.03
2022-12-08T11:30:28.317Z,19.53
2022-12-08T11:32:59.682Z,18.93
2022-12-08T11:35:37.322Z,18.73
2022-12-08T11:38:23.638Z,19.80
2022-12-08T11:41:16.310Z,18.83
2022-12-08T11:43:49.283Z,17.97
2022-12-08T11:46:23.323Z,16.80
2022-12-08T11:49:06.194Z,18.77
2022-12-08T11:51:42.370Z,18.87
2022-12-08T11:54:09.274Z,18.13
2022-12-08T11:56:46.063Z,17.70
2022-12-08T11:59:32.997Z,16.60
2022-12-08T12:02:02.314Z,16.10
2022-12-08T12:04:55.448Z,17.27
2022-12-08T12:07:26.597Z,17.17
2022-12-08T12:10:06.584Z,16.13
2022-12-08T12:12:44.009Z,17.03
2022-12-08T12:15:21.623Z,16.57
2022-12-08T12:17:53.723Z,13.63
2022-12-08T12:20:24.839Z,12.57
2022-12-08T12:23:06.514Z,12.30
2022-12-08T12:25:35.526Z,11.43
2022-12-08T12:28:07.883Z,10.80
2022-12-08T12:30:56.201Z,9.93
2022-12-08T12:33:23.966Z,9.67
2022-12-08T12:35:50.818Z,9.90
2022-12-08T12:38:45.577Z,9.20
2022-12-08T12:41:14.356Z,9.93
2022-12-08T12:44:01.147Z,9.23
2022-12-08T12:46:27.648Z,9.80
2022-12-08T12:49:21.228Z,9.40
2022-12-08T12:51:54.687Z,10.00
2022-12-08T12:54:25.303Z,9.37
2022-12-08T12:57:10.281Z,10.50
2022-12-08T12:59:51.632Z,10.63
2022-12-08T13:02:36.834Z,9.87
2022-12-08T13:05:08.834Z,11.30
2022-12-08T13:07:43.525Z,11.77
2022-12-08T13:10:15.979Z,12.10
2022-12-08T13:13:01.334Z,12.83
2022-12-08T13:15:38.372Z,13.17
2022-12-08T13:18:07.526Z,13.00
2022-12-08T13:20:45.528Z,12.50
2022-12-08T13:23:26.359Z,12.80
2022-12-08T13:26:09.565Z,14.17
2022-12-08T13:28:58.839Z,13.77
2022-12-08T13:31:50.423Z,14.63
2022-12-08T13:34:29.498Z,13.27
2022-12-08T13:37:08.254Z,13.23
2022-12-08T13:39:40.784Z,11.77
2022-12-08T13:42:13.410Z,12.50
2022-12-08T13:48:26.971Z,12.20
2022-12-08T13:53:22.348Z,11.87
2022-12-08T13:57:17.054Z,12.70
2022-12-08T13:59:45.763Z,12.83
2022-12-08T14:02:47.688Z,12.30
2022-12-08T14:05:34.864Z,11.80
2022-12-08T14:08:09.832Z,10.43
2022-12-08T14:10:39.260Z,10.60
2022-12-08T14:13:10.727Z,9.80
2022-12-08T14:15:40.031Z,8.87
2022-12-08T14:18:23.431Z,9.07
2022-12-08T14:21:20.433Z,8.90
2022-12-08T14:23:47.404Z,8.53
2022-12-08T14:26:13.974Z,7.40
2022-12-08T14:28:44.760Z,9.13
2022-12-08T14:31:14.601Z,7.70
2022-12-08T14:33:41.911Z,8.50
2022-12-08T14:36:09.750Z,7.73
2022-12-08T14:38:36.352Z,7.90
2022-12-08T14:41:08.797Z,8.23
2022-12-08T14:43:35.888Z,9.47
2022-12-08T14:46:06.334Z,9.23
2022-12-08T14:48:39.424Z,9.57
2022-12-08T14:51:15.349Z,9.43
2022-12-08T14:54:01.521Z,10.60
2022-12-08T14:56:51.156Z,11.83
2022-12-08T14:59:25.746Z,11.77
2022-12-08T15:01:54.845Z,11.60
2022-12-08T15:04:27.189Z,12.70
2022-12-08T15:07:02.647Z,11.80
2022-12-08T15:09:31.767Z,11.97
2022-12-08T15:12:04.532Z,11.37
2022-12-08T15:14:34.666Z,11.83
2022-12-08T15:17:01.761Z,11.50
2022-12-08T15:19:31.047Z,13.00
2022-12-08T15:22:02.518Z,12.93
2022-12-08T15:24:32.118Z,12.43
2022-12-08T15:26:58.820Z,13.03
2022-12-08T15:29:28.159Z,12.60
2022-12-08T15:31:58.416Z,12.63
2022-12-08T15:34:25.173Z,14.00
2022-12-08T15:36:53.409Z,13.27
2022-12-08T15:39:19.798Z,13.87
2022-12-08T15:41:46.287Z,14.30
2022-12-08T15:44:12.730Z,15.57
2022-12-08T15:46:39.233Z,14.30
2022-12-08T15:49:06.463Z,14.73
2022-12-08T15:51:36.453Z,15.70
2022-12-08T15:54:02.962Z,15.17
2022-12-08T15:56:29.515Z,15.47
2022-12-08T15:58:57.385Z,15.53
2022-12-08T16:01:25.806Z,14.80
2022-12-08T16:09:38.595Z,15.47
2022-12-08T16:12:26.234Z,16.97
2022-12-08T16:17:40.223Z,19.47
2022-12-08T16:20:12.322Z,20.10
2022-12-08T16:23:03.586Z,17.97
2022-12-08T16:25:27.318Z,17.53
2022-12-08T16:30:42.903Z,15.67
2022-12-08T16:33:11.266Z,14.53
2022-12-08T16:35:37.950Z,13.97
2022-12-08T16:38:05.038Z,13.30
2022-12-08T16:40:31.760Z,13.17
2022-12-08T16:42:58.298Z,14.63
2022-12-08T16:45:28.289Z,14.10
2022-12-08T16:47:57.805Z,14.43
2022-12-08T16:50:27.051Z,14.13
2022-12-08T16:53:11.208Z,14.33
2022-12-08T16:55:38.336Z,15.67
2022-12-08T16:58:05.454Z,16.87
2022-12-08T17:00:37.371Z,15.03
2022-12-08T17:03:10.727Z,15.27
2022-12-08T17:05:40.214Z,14.33
2022-12-08T17:08:07.122Z,15.33
2022-12-08T17:10:37.059Z,14.20
2022-12-08T17:13:03.595Z,13.37
2022-12-08T17:15:30.232Z,14.00
2022-12-08T17:17:56.762Z,14.23
2022-12-08T17:20:26.522Z,15.00
2022-12-08T17:22:58.101Z,15.97
2022-12-08T17:25:26.141Z,14.83
2022-12-08T17:27:52.652Z,16.00
2022-12-08T17:30:19.693Z,16.10
2022-12-08T17:32:46.524Z,16.50
2022-12-08T17:35:14.297Z,16.70
2022-12-08T17:37:41.023Z,15.50
2022-12-08T17:40:08.481Z,15.33
2022-12-08T17:42:35.139Z,15.47
2022-12-08T17:45:01.767Z,15.77
2022-12-08T17:47:28.241Z,15.60
2022-12-08T17:49:56.172Z,16.07
2022-12-08T17:52:22.828Z,15.07
2022-12-08T17:54:49.442Z,15.17
2022-12-08T17:57:16.008Z,15.37
2022-12-08T17:59:42.679Z,14.80
2022-12-08T18:02:11.996Z,14.47
2022-12-08T18:04:38.592Z,16.07
2022-12-08T18:07:05.114Z,15.50
2022-12-08T18:09:31.970Z,15.10
2022-12-08T18:11:58.543Z,15.53
2022-12-08T18:14:25.011Z,21.53
2022-12-08T18:16:51.665Z,18.30
2022-12-08T18:19:18.275Z,15.53
2022-12-08T18:21:44.924Z,16.10
2022-12-08T18:24:22.496Z,15.53
2022-12-08T18:26:52.009Z,15.80
2022-12-08T18:29:19.845Z,14.43
2022-12-08T18:31:46.359Z,15.00
2022-12-08T18:34:12.882Z,15.63
2022-12-08T18:36:39.358Z,14.73
2022-12-08T18:39:10.716Z,15.30
2022-12-08T18:41:37.649Z,14.43
2022-12-08T18:44:04.653Z,14.73
2022-12-08T18:46:31.405Z,14.47
2022-12-08T18:48:59.383Z,14.80
2022-12-08T18:51:25.842Z,14.50
2022-12-08T18:53:53.435Z,15.73
2022-12-08T18:56:28.743Z,14.90
2022-12-08T18:59:02.616Z,15.00
2022-12-08T19:01:30.764Z,16.33
2022-12-08T19:04:26.707Z,15.00
2022-12-08T19:06:45.514Z,15.90
2022-12-08T19:09:12.869Z,15.83
2022-12-08T19:11:39.642Z,15.63
2022-12-08T19:14:07.387Z,14.87
2022-12-08T19:16:34.040Z,15.17
2022-12-08T19:19:01.057Z,14.90
2022-12-08T19:21:27.729Z,15.47
2022-12-08T19:23:55.960Z,15.40
2022-12-08T19:26:22.438Z,17.27
2022-12-08T19:28:48.940Z,15.40
2022-12-08T19:31:15.468Z,17.50
2022-12-08T19:33:42.238Z,15.70
2022-12-08T19:36:12.023Z,14.77
2022-12-08T19:38:57.234Z,16.17
2022-12-08T19:41:43.727Z,15.30
2022-12-08T19:44:36.647Z,15.47
2022-12-08T19:47:03.802Z,15.80
2022-12-08T19:49:30.727Z,14.93
2022-12-08T19:51:57.710Z,14.87
2022-12-08T19:54:24.225Z,15.20
2022-12-08T19:56:50.682Z,15.13
2022-12-08T19:59:18.177Z,14.97
2022-12-08T20:01:48.054Z,14.37
2022-12-08T20:04:16.077Z,13.97
2022-12-08T20:06:44.021Z,14.63
2022-12-08T20:09:11.576Z,14.83
2022-12-08T20:11:39.015Z,14.67
2022-12-08T20:14:05.929Z,14.53
2022-12-08T20:16:32.998Z,13.60
2022-12-08T20:19:02.602Z,15.00
2022-12-08T20:21:29.129Z,16.87
2022-12-08T20:23:55.949Z,15.03
2022-12-08T20:26:23.669Z,15.50
2022-12-08T20:28:50.480Z,15.00
2022-12-08T20:31:22.922Z,17.23
2022-12-08T20:33:49.681Z,17.00
2022-12-08T20:36:18.897Z,17.07
2022-12-08T20:38:46.604Z,15.83
2022-12-08T20:41:16.003Z,15.97
2022-12-08T20:43:46.882Z,17.20
2022-12-08T20:46:16.530Z,14.57
2022-12-08T20:48:43.846Z,15.87
2022-12-08T20:51:19.570Z,16.07
2022-12-08T20:53:46.712Z,16.03
2022-12-08T20:56:15.174Z,16.43
2022-12-08T20:58:42.882Z,16.73
2022-12-08T21:01:15.692Z,16.80
2022-12-08T21:03:42.963Z,15.57
2022-12-08T21:06:09.885Z,16.40
2022-12-08T21:08:37.397Z,15.93
2022-12-08T21:11:05.561Z,17.07
2022-12-08T21:13:32.357Z,18.43
2022-12-08T21:15:59.007Z,18.23
2022-12-08T21:18:25.763Z,17.57
2022-12-08T21:21:02.267Z,18.17
2022-12-08T21:23:28.963Z,18.03
2022-12-08T21:25:55.591Z,16.23
2022-12-08T21:28:22.178Z,14.70
2022-12-08T21:30:48.753Z,14.53
2022-12-08T21:33:15.459Z,13.87
2022-12-08T21:35:42.167Z,13.33
2022-12-08T21:38:08.961Z,13.30
2022-12-08T21:40:35.796Z,13.33
2022-12-08T21:43:03.944Z,12.67
2022-12-08T21:45:31.135Z,13.47
2022-12-08T21:47:59.546Z,12.97
2022-12-08T21:50:27.277Z,12.33
2022-12-08T21:52:53.850Z,12.90
2022-12-08T21:55:21.540Z,12.63
2022-12-08T21:57:48.181Z,12.53
2022-12-08T22:00:16.561Z,13.93
2022-12-08T22:02:43.891Z,13.00
2022-12-08T22:05:11.482Z,13.43
2022-12-08T22:07:39.475Z,13.30
2022-12-08T22:10:07.834Z,13.90
2022-12-08T22:12:35.899Z,13.60
2022-12-08T22:15:05.783Z,13.70
2022-12-08T22:17:36.962Z,14.53
2022-12-08T22:20:06.477Z,14.37
2022-12-08T22:22:34.941Z,14.50
2022-12-08T22:25:06.156Z,13.47
2022-12-08T22:27:35.815Z,14.50
2022-12-08T22:30:03.630Z,14.00
2022-12-08T22:32:30.545Z,13.87
2022-12-08T22:34:57.226Z,14.20
2022-12-08T22:37:24.235Z,14.93
2022-12-08T22:39:50.846Z,14.70
2022-12-08T22:42:17.611Z,14.40
2022-12-08T22:44:44.232Z,15.63
2022-12-08T22:47:10.918Z,14.97
2022-12-08T22:49:37.730Z,15.00
2022-12-08T22:52:04.599Z,14.30
2022-12-08T22:54:31.542Z,14.27
2022-12-08T22:56:58.364Z,15.53
2022-12-08T22:59:24.969Z,14.33
2022-12-08T23:01:51.541Z,15.50
2022-12-08T23:04:18.702Z,16.37
2022-12-08T23:06:45.556Z,15.03
2022-12-08T23:09:12.719Z,14.73
2022-12-08T23:11:39.310Z,15.23
2022-12-08T23:14:05.788Z,14.40
2022-12-08T23:16:33.524Z,13.63
2022-12-08T23:19:00.241Z,15.10
2022-12-08T23:21:27.088Z,15.13
2022-12-08T23:23:53.664Z,14.73
2022-12-08T23:26:23.482Z,14.10
2022-12-08T23:28:51.049Z,15.60
2022-12-08T23:31:18.800Z,14.73
2022-12-08T23:33:46.144Z,14.23
2022-12-08T23:36:13.898Z,14.43
2022-12-08T23:38:40.683Z,14.43
2022-12-08T23:41:09.135Z,14.27
2022-12-08T23:43:35.997Z,14.20
2022-12-08T23:46:03.056Z,15.30
2022-12-08T23:48:30.198Z,15.80
2022-12-08T23:50:57.523Z,16.73
2022-12-08T23:53:24.065Z,16.73
2022-12-08T23:55:50.630Z,16.77
2022-12-08T23:58:17.402Z,17.63
